createdAt,value
2018-12-23T00:02:23.412Z,6.17
2018-12-23T00:04:53.486Z,5.89
2018-12-23T00:07:23.759Z,5.63
2018-12-23T00:09:53.508Z,5.53
2018-12-23T00:12:39.090Z,5.46
2018-12-23T00:15:20.983Z,5.35
2018-12-23T00:17:54.160Z,5.35
2018-12-23T00:20:36.408Z,5.34
2018-12-23T00:26:13.150Z,5.41
2018-12-23T00:28:42.876Z,5.48
2018-12-23T00:31:26.477Z,5.53
2018-12-23T00:36:55.111Z,5.39
2018-12-23T00:39:41.435Z,5.44
2018-12-23T00:42:11.173Z,5.39
2018-12-23T00:44:47.071Z,5.49
2018-12-23T00:47:20.371Z,5.53
2018-12-23T00:49:56.414Z,5.64
2018-12-23T00:52:32.535Z,5.50
2018-12-23T00:55:08.407Z,5.45
2018-12-23T00:57:38.626Z,5.52
2018-12-23T01:00:14.087Z,5.42
2018-12-23T01:02:59.838Z,5.48
2018-12-23T01:05:39.283Z,5.35
2018-12-23T01:08:21.736Z,5.44
2018-12-23T01:10:57.292Z,5.26
2018-12-23T01:13:39.383Z,5.35
2018-12-23T01:16:14.818Z,5.24
2018-12-23T01:18:50.003Z,5.33
2018-12-23T01:21:23.914Z,5.49
2018-12-23T01:23:53.871Z,5.45
2018-12-23T01:26:33.104Z,5.38
2018-12-23T01:29:19.136Z,5.35
2018-12-23T01:31:48.639Z,5.36
2018-12-23T01:34:18.953Z,5.33
2018-12-23T01:36:48.813Z,5.31
2018-12-23T01:39:24.007Z,5.35
2018-12-23T01:41:56.707Z,5.32
2018-12-23T01:44:48.755Z,5.31
2018-12-23T01:47:32.047Z,5.10
2018-12-23T01:50:01.396Z,4.98
2018-12-23T01:52:32.689Z,4.92
2018-12-23T01:58:07.767Z,4.68
2018-12-23T02:00:38.190Z,4.72
2018-12-23T02:03:07.891Z,4.77
2018-12-23T02:05:45.882Z,4.91
2018-12-23T02:08:09.775Z,4.85
2018-12-23T02:10:42.357Z,4.92
2018-12-23T02:16:36.692Z,5.07
2018-12-23T02:19:10.311Z,4.96
2018-12-23T02:21:40.076Z,4.98
2018-12-23T02:24:10.435Z,4.85
2018-12-23T02:26:40.178Z,4.83
2018-12-23T02:29:09.718Z,4.75
2018-12-23T02:31:39.650Z,4.64
2018-12-23T02:34:09.794Z,4.52
2018-12-23T02:36:39.560Z,4.38
2018-12-23T02:39:10.553Z,4.20
2018-12-23T02:41:48.040Z,4.21
2018-12-23T02:44:23.315Z,4.05
2018-12-23T02:46:58.745Z,3.94
2018-12-23T02:49:28.142Z,3.68
2018-12-23T02:55:11.365Z,3.36
2018-12-23T02:57:50.740Z,3.37
2018-12-23T03:00:21.472Z,3.47
2018-12-23T03:02:58.038Z,3.47
2018-12-23T03:11:26.978Z,3.38
2018-12-23T03:14:02.813Z,3.46
2018-12-23T03:16:37.837Z,3.37
2018-12-23T03:25:02.692Z,3.13
2018-12-23T03:27:39.161Z,3.14
2018-12-23T03:30:20.274Z,3.20
2018-12-23T03:36:16.167Z,3.28
2018-12-23T03:38:51.265Z,3.37
2018-12-23T03:41:32.794Z,3.52
2018-12-23T03:47:18.075Z,3.84
2018-12-23T03:49:49.369Z,3.95
2018-12-23T04:36:06.722Z,3.77
2018-12-23T04:38:37.821Z,3.91
2018-12-23T04:41:10.705Z,4.02
2018-12-23T04:43:43.494Z,4.10
2018-12-23T04:46:35.684Z,4.13
2018-12-23T04:49:15.524Z,4.16
2018-12-23T04:51:48.319Z,4.16
2018-12-23T04:54:19.354Z,4.19
2018-12-23T04:56:52.305Z,4.15
2018-12-23T04:59:23.456Z,4.08
2018-12-23T05:11:20.867Z,3.70
2018-12-23T05:13:53.636Z,3.71
2018-12-23T05:35:21.848Z,3.92
2018-12-23T05:41:06.966Z,4.18
2018-12-23T05:44:01.425Z,4.28
2018-12-23T06:14:31.348Z,4.94
2018-12-23T06:17:06.728Z,4.93
2018-12-23T06:19:49.950Z,5.09
2018-12-23T06:25:37.187Z,5.11
2018-12-23T07:02:56.803Z,5.54
2018-12-23T07:05:31.783Z,5.58
2018-12-23T07:08:01.152Z,5.59
2018-12-23T07:10:30.861Z,5.64
2018-12-23T07:13:00.320Z,5.66
2018-12-23T07:15:29.688Z,5.71
2018-12-23T07:17:59.481Z,5.75
2018-12-23T07:20:28.990Z,5.76
2018-12-23T07:23:05.343Z,5.78
2018-12-23T07:25:36.143Z,5.80
2018-12-23T07:28:18.418Z,5.82
2018-12-23T07:30:53.162Z,5.84
2018-12-23T07:33:28.874Z,5.85
2018-12-23T07:36:01.643Z,5.89
2018-12-23T07:38:43.307Z,5.90
2018-12-23T07:41:13.031Z,5.91
2018-12-23T07:43:42.803Z,5.98
2018-12-23T07:46:13.152Z,6.00
2018-12-23T07:48:42.899Z,6.06
2018-12-23T07:51:12.247Z,6.09
2018-12-23T07:53:42.001Z,6.15
2018-12-23T07:56:11.371Z,6.17
2018-12-23T07:58:41.083Z,6.20
2018-12-23T08:01:10.586Z,6.20
2018-12-23T08:12:48.302Z,6.36
2018-12-23T08:15:46.163Z,6.26
2018-12-23T08:18:15.935Z,6.24
2018-12-23T08:21:04.361Z,6.20
2018-12-23T08:23:37.113Z,6.14
2018-12-23T08:26:24.146Z,6.16
2018-12-23T09:00:16.798Z,7.32
2018-12-23T09:06:00.585Z,7.46
2018-12-23T09:20:47.977Z,8.06
2018-12-23T09:23:29.541Z,8.15
2018-12-23T09:45:44.402Z,7.89
2018-12-23T09:48:42.813Z,7.81
2018-12-23T09:51:12.637Z,7.79
2018-12-23T09:53:42.129Z,7.83
2018-12-23T09:56:11.606Z,7.85
2018-12-23T09:58:41.432Z,7.97
2018-12-23T10:01:11.321Z,8.04
2018-12-23T10:03:41.132Z,8.16
2018-12-23T10:06:10.641Z,8.04
2018-12-23T10:08:40.505Z,8.18
2018-12-23T10:11:10.001Z,8.35
2018-12-23T10:13:39.737Z,8.22
2018-12-23T10:16:15.022Z,8.30
2018-12-23T10:18:47.667Z,8.30
2018-12-23T10:21:20.890Z,8.21
2018-12-23T10:23:50.377Z,7.98
2018-12-23T10:30:30.514Z,8.14
2018-12-23T10:33:01.985Z,8.33
2018-12-23T10:35:33.370Z,8.60
2018-12-23T10:38:04.912Z,8.79
2018-12-23T10:40:35.592Z,8.71
2018-12-23T10:43:07.106Z,8.87
2018-12-23T10:45:38.512Z,8.75
2018-12-23T10:48:10.033Z,8.83
2018-12-23T10:50:41.541Z,8.83
2018-12-23T10:53:13.090Z,8.87
2018-12-23T10:55:44.439Z,8.62
2018-12-23T10:58:15.080Z,8.72
2018-12-23T11:00:46.517Z,8.70
2018-12-23T11:03:17.940Z,8.73
2018-12-23T11:05:49.298Z,8.72
2018-12-23T11:08:27.122Z,8.74
2018-12-23T11:10:58.847Z,8.66
2018-12-23T11:13:30.465Z,8.67
2018-12-23T11:16:03.933Z,8.93
2018-12-23T11:18:34.597Z,8.88
2018-12-23T11:21:06.081Z,9.11
2018-12-23T11:23:36.739Z,9.13
2018-12-23T11:26:08.366Z,9.05
2018-12-23T11:28:40.157Z,8.92
2018-12-23T11:31:11.629Z,9.05
2018-12-23T11:33:43.628Z,9.06
2018-12-23T11:36:16.114Z,9.29
2018-12-23T11:38:46.952Z,9.29
2018-12-23T11:41:21.402Z,9.19
2018-12-23T11:43:55.102Z,9.21
2018-12-23T11:46:27.570Z,9.23
2018-12-23T11:49:03.587Z,9.20
2018-12-23T11:51:42.078Z,9.17
2018-12-23T11:54:12.826Z,9.46
2018-12-23T11:56:44.217Z,9.40
2018-12-23T11:59:15.573Z,9.27
2018-12-23T12:01:49.746Z,9.39
2018-12-23T12:04:20.392Z,9.46
2018-12-23T12:06:53.246Z,9.36
2018-12-23T12:09:23.876Z,9.49
2018-12-23T12:11:55.356Z,9.53
2018-12-23T12:14:27.639Z,9.13
2018-12-23T12:16:59.283Z,9.14
2018-12-23T12:19:29.969Z,9.27
2018-12-23T12:22:00.847Z,9.34
2018-12-23T12:24:37.317Z,9.29
2018-12-23T12:27:09.095Z,9.56
2018-12-23T12:29:45.104Z,9.51
2018-12-23T12:32:38.421Z,9.52
2018-12-23T12:35:12.750Z,9.56
2018-12-23T12:37:49.970Z,9.43
2018-12-23T12:40:26.848Z,9.60
2018-12-23T12:43:00.014Z,9.30
2018-12-23T12:45:36.249Z,9.24
2018-12-23T12:48:09.924Z,9.26
2018-12-23T12:50:40.934Z,9.06
2018-12-23T12:53:19.076Z,8.99
2018-12-23T12:55:50.467Z,8.95
2018-12-23T12:58:21.918Z,8.97
2018-12-23T13:01:00.513Z,8.99
2018-12-23T13:03:34.272Z,8.99
2018-12-23T13:06:23.137Z,8.65
2018-12-23T13:09:00.501Z,8.75
2018-12-23T13:11:37.892Z,8.87
2018-12-23T13:14:13.045Z,8.85
2018-12-23T13:16:46.166Z,8.65
2018-12-23T13:19:19.531Z,8.59
2018-12-23T13:21:50.960Z,8.63
2018-12-23T13:24:21.709Z,8.54
2018-12-23T13:26:52.382Z,8.40
2018-12-23T13:29:23.887Z,8.35
2018-12-23T13:31:54.616Z,8.33
2018-12-23T13:34:26.752Z,8.31
2018-12-23T13:36:58.343Z,8.35
2018-12-23T13:39:30.956Z,8.26
2018-12-23T13:43:16.019Z,8.24
2018-12-23T13:46:15.206Z,8.29
2018-12-23T13:49:24.256Z,8.16
2018-12-23T13:52:56.011Z,8.08
2018-12-23T13:56:25.363Z,8.07
2018-12-23T13:59:42.689Z,8.07
2018-12-23T14:02:46.816Z,8.08
2018-12-23T14:06:03.523Z,8.02
2018-12-23T14:10:00.308Z,7.96
2018-12-23T14:12:33.043Z,7.93
2018-12-23T14:15:05.426Z,7.99
2018-12-23T14:17:36.132Z,8.01
2018-12-23T14:20:08.379Z,8.03
2018-12-23T14:22:43.927Z,8.01
2018-12-23T14:25:15.327Z,7.94
2018-12-23T14:27:46.689Z,7.87
2018-12-23T14:30:17.313Z,7.85
2018-12-23T14:32:47.955Z,7.80
2018-12-23T14:35:19.391Z,7.82
2018-12-23T14:37:50.975Z,7.87
2018-12-23T14:40:21.551Z,7.84
2018-12-23T14:42:52.205Z,7.87
2018-12-23T14:45:23.578Z,7.83
2018-12-23T14:47:54.923Z,7.80
2018-12-23T14:50:26.247Z,7.75
2018-12-23T14:52:57.603Z,7.81
2018-12-23T14:55:28.954Z,7.81
2018-12-23T14:57:59.527Z,7.69
2018-12-23T15:00:30.966Z,7.58
2018-12-23T15:03:02.307Z,7.56
2018-12-23T15:05:33.709Z,7.65
2018-12-23T15:08:04.232Z,7.56
2018-12-23T15:10:34.919Z,7.54
2018-12-23T15:13:06.580Z,7.51
2018-12-23T15:15:37.112Z,7.51
2018-12-23T15:18:07.706Z,7.50
2018-12-23T15:20:39.047Z,7.49
2018-12-23T15:23:11.061Z,7.57
2018-12-23T15:25:42.579Z,7.58
2018-12-23T15:28:13.935Z,7.63
2018-12-23T15:30:44.516Z,7.76
2018-12-23T15:33:15.916Z,7.66
2018-12-23T15:35:47.655Z,7.65
2018-12-23T15:38:18.990Z,7.68
2018-12-23T15:40:49.578Z,7.63
2018-12-23T15:43:20.975Z,7.65
2018-12-23T15:45:52.438Z,7.72
2018-12-23T15:48:23.883Z,7.94
2018-12-23T15:50:55.299Z,7.86
2018-12-23T15:53:25.931Z,7.98
2018-12-23T15:55:57.264Z,7.98
2018-12-23T15:58:27.862Z,8.01
2018-12-23T16:00:59.289Z,7.96
2018-12-23T16:03:30.773Z,7.85
2018-12-23T16:06:02.241Z,7.84
2018-12-23T16:08:36.721Z,7.79
2018-12-23T16:11:08.083Z,7.96
2018-12-23T16:13:39.570Z,7.86
2018-12-23T16:16:10.224Z,7.83
2018-12-23T16:18:41.735Z,7.64
2018-12-23T16:21:13.216Z,7.69
2018-12-23T16:23:44.714Z,7.64
2018-12-23T16:26:16.220Z,7.48
2018-12-23T16:28:47.680Z,7.55
2018-12-23T16:31:19.088Z,7.50
2018-12-23T16:33:49.740Z,7.44
2018-12-23T16:36:21.143Z,7.49
2018-12-23T16:38:52.479Z,7.45
2018-12-23T16:41:23.672Z,7.31
2018-12-23T16:43:55.920Z,7.27
2018-12-23T16:47:24.703Z,7.27
2018-12-23T16:49:55.785Z,7.22
2018-12-23T16:52:26.995Z,7.20
2018-12-23T16:54:58.564Z,7.21
2018-12-23T16:57:30.558Z,7.29
2018-12-23T17:00:01.591Z,7.22
2018-12-23T17:02:32.260Z,7.27
2018-12-23T17:05:03.219Z,7.27
2018-12-23T17:07:34.824Z,7.26
2018-12-23T17:10:08.510Z,7.17
2018-12-23T17:12:38.950Z,7.14
2018-12-23T17:15:10.358Z,7.13
2018-12-23T17:17:41.754Z,7.12
2018-12-23T17:20:15.598Z,7.14
2018-12-23T17:22:46.832Z,7.07
2018-12-23T17:25:17.628Z,7.08
2018-12-23T17:27:49.278Z,7.01
2018-12-23T17:30:21.559Z,7.01
2018-12-23T17:32:53.578Z,7.00
2018-12-23T17:35:25.560Z,7.01
2018-12-23T17:37:57.769Z,6.99
2018-12-23T17:40:29.435Z,6.98
2018-12-23T17:43:02.272Z,6.94
2018-12-23T17:45:33.843Z,6.93
2018-12-23T17:48:05.562Z,6.88
2018-12-23T17:50:37.315Z,6.89
2018-12-23T17:53:08.807Z,6.87
2018-12-23T17:55:40.286Z,6.83
2018-12-23T17:58:11.703Z,6.86
2018-12-23T18:00:43.493Z,6.78
2018-12-23T18:03:15.014Z,6.87
2018-12-23T18:05:46.957Z,6.80
2018-12-23T18:08:18.508Z,6.85
2018-12-23T18:10:49.926Z,6.80
2018-12-23T18:13:21.448Z,6.76
2018-12-23T18:15:52.882Z,6.78
2018-12-23T18:18:24.444Z,6.80
2018-12-23T18:20:55.861Z,6.82
2018-12-23T18:23:27.951Z,6.95
2018-12-23T18:25:59.642Z,6.90
2018-12-23T18:28:30.287Z,6.87
2018-12-23T18:31:01.830Z,6.79
2018-12-23T18:33:33.630Z,6.80
2018-12-23T18:36:05.774Z,6.87
2018-12-23T18:38:36.522Z,6.80
2018-12-23T18:41:07.648Z,6.80
2018-12-23T18:43:39.394Z,6.77
2018-12-23T18:46:12.061Z,6.77
2018-12-23T18:48:43.690Z,6.75
2018-12-23T18:51:16.060Z,6.73
2018-12-23T18:53:47.918Z,6.73
2018-12-23T18:56:23.282Z,6.73
2018-12-23T18:58:55.563Z,6.74
2018-12-23T19:01:27.035Z,6.67
2018-12-23T19:03:58.698Z,6.64
2018-12-23T19:06:31.120Z,6.04
2018-12-23T19:09:31.910Z,6.69
2018-12-23T19:13:14.902Z,6.71
2018-12-23T19:16:40.322Z,6.73
2018-12-23T19:19:55.974Z,6.71
2018-12-23T19:23:13.602Z,6.70
2018-12-23T19:27:14.123Z,6.72
2018-12-23T19:30:41.963Z,6.70
2018-12-23T19:34:05.606Z,6.74
2018-12-23T19:37:40.088Z,6.70
2018-12-23T19:41:37.763Z,6.69
2018-12-23T19:45:11.383Z,6.72
2018-12-23T19:48:42.806Z,6.65
2018-12-23T19:52:22.891Z,6.62
2018-12-23T19:55:52.455Z,6.63
2018-12-23T19:59:29.761Z,6.64
2018-12-23T20:02:41.939Z,6.59
2018-12-23T20:06:05.062Z,6.56
2018-12-23T20:09:40.289Z,6.62
2018-12-23T20:13:05.577Z,6.67
2018-12-23T20:16:30.018Z,6.69
2018-12-23T20:20:14.809Z,6.63
2018-12-23T20:24:09.447Z,6.56
2018-12-23T20:27:53.885Z,6.56
2018-12-23T20:31:11.212Z,6.52
2018-12-23T20:34:36.613Z,6.50
2018-12-23T20:37:48.678Z,6.43
2018-12-23T20:41:13.705Z,6.38
2018-12-23T20:44:56.749Z,6.32
2018-12-23T20:48:16.241Z,6.27
2018-12-23T20:51:44.859Z,6.28
2018-12-23T20:55:29.713Z,6.25
2018-12-23T20:58:45.301Z,6.28
2018-12-23T21:02:03.848Z,6.30
2018-12-23T21:05:36.251Z,6.31
2018-12-23T21:09:09.233Z,6.30
2018-12-23T21:12:46.358Z,6.29
2018-12-23T21:16:32.216Z,6.35
2018-12-23T21:20:00.358Z,6.37
2018-12-23T21:23:40.044Z,6.34
2018-12-23T21:27:32.300Z,6.34
2018-12-23T21:30:47.772Z,6.28
2018-12-23T21:34:58.261Z,6.33
2018-12-23T21:38:35.968Z,6.25
2018-12-23T21:41:53.754Z,6.40
2018-12-23T21:45:18.577Z,6.39
2018-12-23T21:48:56.120Z,6.40
2018-12-23T21:52:18.525Z,6.40
2018-12-23T21:55:49.196Z,6.35
2018-12-23T21:59:00.560Z,6.39
2018-12-23T22:02:31.427Z,6.43
2018-12-23T22:06:05.792Z,6.44
2018-12-23T22:09:30.441Z,6.41
2018-12-23T22:12:59.631Z,6.37
2018-12-23T22:15:31.235Z,6.33
2018-12-23T22:18:02.839Z,6.46
2018-12-23T22:20:34.315Z,6.48
2018-12-23T22:23:05.796Z,6.43
2018-12-23T22:25:37.391Z,6.45
2018-12-23T22:28:08.839Z,6.51
2018-12-23T22:30:40.229Z,6.50
2018-12-23T22:33:11.888Z,6.51
2018-12-23T22:35:43.379Z,6.52
2018-12-23T22:38:14.779Z,6.57
2018-12-23T22:40:53.348Z,6.70
2018-12-23T22:43:24.733Z,6.61
2018-12-23T22:45:56.111Z,6.64
2018-12-23T22:48:27.544Z,6.52
2018-12-23T22:50:58.884Z,6.51
2018-12-23T22:53:30.239Z,6.51
2018-12-23T22:56:01.511Z,6.78
2018-12-23T22:58:32.879Z,6.78
2018-12-23T23:01:04.595Z,6.61
2018-12-23T23:03:36.135Z,6.70
2018-12-23T23:06:07.505Z,6.61
2018-12-23T23:08:38.789Z,6.53
2018-12-23T23:11:10.118Z,6.49
2018-12-23T23:13:41.543Z,6.61
2018-12-23T23:16:12.879Z,6.60
2018-12-23T23:18:44.207Z,6.65
2018-12-23T23:21:15.577Z,6.54
2018-12-23T23:23:46.834Z,6.42
2018-12-23T23:26:18.191Z,6.45
2018-12-23T23:28:49.471Z,6.46
2018-12-23T23:31:20.845Z,6.42
2018-12-23T23:33:52.140Z,6.38
2018-12-23T23:36:23.438Z,6.37
2018-12-23T23:38:54.754Z,6.37
2018-12-23T23:41:26.058Z,6.42
2018-12-23T23:43:57.365Z,6.41
2018-12-23T23:46:28.674Z,6.44
2018-12-23T23:49:00.019Z,6.35
2018-12-23T23:51:31.383Z,6.46
2018-12-23T23:54:02.772Z,6.36
2018-12-23T23:56:34.068Z,6.41
2018-12-23T23:59:05.462Z,6.35
